createdAt,value
2019-03-03T00:01:48.334Z,100761.54
2019-03-03T00:04:20.475Z,100765.05
2019-03-03T00:06:52.606Z,100759.36
2019-03-03T00:09:24.751Z,100751.87
2019-03-03T00:11:56.878Z,100761.98
2019-03-03T00:14:29.011Z,100749.25
2019-03-03T00:17:01.158Z,100749.70
2019-03-03T00:19:33.286Z,100751.46
2019-03-03T00:22:05.439Z,100740.45
2019-03-03T00:24:37.562Z,100729.05
2019-03-03T00:27:09.688Z,100740.91
2019-03-03T00:29:41.833Z,100733.90
2019-03-03T00:32:13.957Z,100731.70
2019-03-03T00:34:46.078Z,100725.53
2019-03-03T00:37:18.496Z,100711.49
2019-03-03T00:39:50.627Z,100711.93
2019-03-03T00:42:22.772Z,100713.67
2019-03-03T00:44:54.906Z,100714.58
2019-03-03T00:47:27.039Z,100710.18
2019-03-03T00:49:59.183Z,100708.41
2019-03-03T00:52:31.309Z,100694.78
2019-03-03T00:55:04.444Z,100694.34
2019-03-03T00:57:36.564Z,100694.77
2019-03-03T01:00:08.703Z,100693.89
2019-03-03T01:02:40.844Z,100695.67
2019-03-03T01:05:12.974Z,100693.03
2019-03-03T01:07:45.109Z,100683.80
2019-03-03T01:10:17.282Z,100685.11
2019-03-03T01:12:49.387Z,100677.22
2019-03-03T01:15:21.512Z,100670.19
2019-03-03T01:17:54.638Z,100667.11
2019-03-03T01:20:26.756Z,100664.91
2019-03-03T01:22:58.879Z,100664.05
2019-03-03T01:25:31.029Z,100657.45
2019-03-03T01:28:03.466Z,100658.35
2019-03-03T01:30:35.588Z,100665.79
2019-03-03T01:33:07.734Z,100672.41
2019-03-03T01:35:39.869Z,100654.37
2019-03-03T01:38:11.993Z,100653.06
2019-03-03T01:40:44.128Z,100657.92
2019-03-03T01:43:16.260Z,100659.67
2019-03-03T01:45:48.382Z,100661.86
2019-03-03T01:48:20.534Z,100668.02
2019-03-03T01:50:52.668Z,100654.39
2019-03-03T01:53:25.769Z,100644.28
2019-03-03T01:55:57.903Z,100639.48
2019-03-03T01:58:30.027Z,100625.86
2019-03-03T02:01:02.174Z,100630.68
2019-03-03T02:03:34.306Z,100624.11
2019-03-03T02:06:06.431Z,100614.01
2019-03-03T02:08:38.584Z,100623.66
2019-03-03T02:11:10.706Z,100610.92
2019-03-03T02:13:42.828Z,100616.66
2019-03-03T02:16:14.981Z,100611.39
2019-03-03T02:18:47.110Z,100616.20
2019-03-03T02:21:19.238Z,100611.38
2019-03-03T02:23:51.378Z,100602.14
2019-03-03T02:26:23.514Z,100597.77
2019-03-03T02:28:55.633Z,100598.21
2019-03-03T02:31:27.777Z,100594.25
2019-03-03T02:33:59.905Z,100591.20
2019-03-03T02:36:32.026Z,100589.00
2019-03-03T02:39:04.191Z,100586.37
2019-03-03T02:41:37.924Z,100583.72
2019-03-03T02:44:10.071Z,100579.32
2019-03-03T02:46:42.206Z,100569.69
2019-03-03T02:49:14.368Z,100568.80
2019-03-03T02:51:46.519Z,100577.58
2019-03-03T02:54:19.716Z,100569.70
2019-03-03T02:56:51.861Z,100569.25
2019-03-03T02:59:23.988Z,100561.34
2019-03-03T03:01:56.111Z,100553.44
2019-03-03T03:04:28.253Z,100560.46
2019-03-03T03:07:00.384Z,100543.80
2019-03-03T03:09:32.502Z,100550.84
2019-03-03T03:12:04.655Z,100540.73
2019-03-03T03:14:36.787Z,100531.07
2019-03-03T03:17:08.938Z,100538.97
2019-03-03T03:19:41.363Z,100533.70
2019-03-03T03:22:13.491Z,100535.48
2019-03-03T03:24:45.646Z,100534.16
2019-03-03T03:27:17.778Z,100515.70
2019-03-03T03:29:49.902Z,100521.45
2019-03-03T03:32:22.116Z,100510.44
2019-03-03T03:34:54.253Z,100517.05
2019-03-03T03:37:26.374Z,100509.58
2019-03-03T03:39:58.501Z,100499.48
2019-03-03T03:42:30.644Z,100508.25
2019-03-03T03:45:02.779Z,100504.30
2019-03-03T03:47:36.217Z,100512.23
2019-03-03T03:50:08.339Z,100510.47
2019-03-03T03:52:40.472Z,100500.36
2019-03-03T03:55:12.639Z,100519.25
2019-03-03T03:57:44.774Z,100505.66
2019-03-03T04:00:16.897Z,100496.88
2019-03-03T04:02:51.512Z,100501.26
2019-03-03T04:05:23.643Z,100499.94
2019-03-03T04:07:55.777Z,100498.20
2019-03-03T04:10:27.912Z,100488.98
2019-03-03T04:13:00.053Z,100497.31
2019-03-03T04:15:32.178Z,100478.47
2019-03-03T04:18:04.328Z,100488.13
2019-03-03T04:20:36.443Z,100487.23
2019-03-03T04:23:08.581Z,100488.99
2019-03-03T04:25:40.733Z,100492.50
2019-03-03T04:28:12.863Z,100481.98
2019-03-03T04:30:44.988Z,100486.80
2019-03-03T04:33:17.150Z,100487.24
2019-03-03T04:35:49.277Z,100485.95
2019-03-03T04:38:21.405Z,100489.02
2019-03-03T04:40:53.551Z,100480.67
2019-03-03T04:43:25.673Z,100480.66
2019-03-03T04:45:58.768Z,100471.47
2019-03-03T04:48:31.895Z,100482.44
2019-03-03T04:51:04.024Z,100471.45
2019-03-03T04:53:36.152Z,100478.05
2019-03-03T04:56:08.315Z,100470.61
2019-03-03T04:58:40.429Z,100466.66
2019-03-03T05:01:12.565Z,100464.02
2019-03-03T05:03:44.699Z,100462.70
2019-03-03T05:06:16.829Z,100467.08
2019-03-03T05:08:50.057Z,100449.55
2019-03-03T05:11:22.171Z,100446.92
2019-03-03T05:13:54.305Z,100458.77
2019-03-03T05:16:26.461Z,100454.37
2019-03-03T05:18:58.590Z,100453.49
2019-03-03T05:21:30.713Z,100464.02
2019-03-03T05:24:02.882Z,100462.26
2019-03-03T05:26:35.008Z,100452.64
2019-03-03T05:29:07.142Z,100460.53
2019-03-03T05:31:39.290Z,100469.75
2019-03-03T05:34:11.420Z,100476.33
2019-03-03T05:36:43.551Z,100471.95
2019-03-03T05:39:15.688Z,100458.74
2019-03-03T05:41:47.821Z,100471.02
2019-03-03T05:44:19.970Z,100463.06
2019-03-03T05:46:52.094Z,100466.02
2019-03-03T05:49:24.226Z,100467.65
2019-03-03T05:51:56.374Z,100467.09
2019-03-03T05:54:28.501Z,100459.86
2019-03-03T05:57:00.634Z,100460.13
2019-03-03T05:59:32.779Z,100454.24
2019-03-03T06:02:05.873Z,100453.66
2019-03-03T06:04:38.000Z,100450.02
2019-03-03T06:07:10.140Z,100435.38
2019-03-03T06:09:42.284Z,100448.91
2019-03-03T06:12:14.412Z,100451.42
2019-03-03T06:14:46.565Z,100448.69
2019-03-03T06:17:18.694Z,100437.98
2019-03-03T06:19:50.820Z,100440.09
2019-03-03T06:22:22.956Z,100440.87
2019-03-03T06:24:55.090Z,100438.13
2019-03-03T06:27:27.230Z,100437.59
2019-03-03T06:29:59.363Z,100435.33
2019-03-03T06:32:31.502Z,100437.91
2019-03-03T06:35:03.631Z,100442.61
2019-03-03T06:37:35.779Z,100441.63
2019-03-03T06:40:07.905Z,100441.94
2019-03-03T06:42:40.033Z,100441.84
2019-03-03T06:45:12.180Z,100435.55
2019-03-03T06:47:44.305Z,100441.17
2019-03-03T06:50:16.448Z,100432.21
2019-03-03T06:52:48.604Z,100436.50
2019-03-03T06:55:20.732Z,100443.00
2019-03-03T06:57:52.862Z,100440.67
2019-03-03T07:00:25.022Z,100439.69
2019-03-03T07:02:57.137Z,100434.20
2019-03-03T07:05:29.268Z,100432.31
2019-03-03T07:08:01.431Z,100425.53
2019-03-03T07:10:33.551Z,100425.41
2019-03-03T07:13:05.680Z,100424.83
2019-03-03T07:15:37.826Z,100425.13
2019-03-03T07:18:10.341Z,100422.78
2019-03-03T07:20:42.554Z,100421.77
2019-03-03T07:23:15.037Z,100422.06
2019-03-03T07:25:47.172Z,100421.52
2019-03-03T07:28:19.301Z,100419.63
2019-03-03T07:30:51.457Z,100421.74
2019-03-03T07:33:23.581Z,100418.59
2019-03-03T07:35:55.718Z,100429.50
2019-03-03T07:38:27.858Z,100425.43
2019-03-03T07:40:59.996Z,100419.17
2019-03-03T07:43:35.329Z,100432.74
2019-03-03T07:46:11.790Z,100422.98
2019-03-03T07:48:43.890Z,100419.38
2019-03-03T07:51:16.029Z,100417.53
2019-03-03T07:53:48.162Z,100416.64
2019-03-03T07:56:20.286Z,100422.89
2019-03-03T07:58:52.432Z,100427.39
2019-03-03T08:01:24.551Z,100419.55
2019-03-03T08:03:56.676Z,100421.92
2019-03-03T08:06:28.819Z,100421.63
2019-03-03T08:09:00.944Z,100421.74
2019-03-03T08:11:34.719Z,100428.88
2019-03-03T08:14:06.841Z,100424.02
2019-03-03T08:16:38.966Z,100424.84
2019-03-03T08:19:11.106Z,100425.69
2019-03-03T08:21:43.234Z,100415.86
2019-03-03T08:24:15.361Z,100427.23
2019-03-03T08:26:47.504Z,100423.66
2019-03-03T08:29:19.626Z,100420.05
2019-03-03T08:31:51.894Z,100416.80
2019-03-03T08:34:24.042Z,100409.66
2019-03-03T08:36:56.176Z,100413.11
2019-03-03T08:39:28.302Z,100423.70
2019-03-03T08:42:00.445Z,100421.49
2019-03-03T08:44:32.570Z,100426.00
2019-03-03T08:47:04.693Z,100418.58
2019-03-03T12:59:23.232Z,100264.86
2019-03-03T13:01:55.356Z,100260.66
2019-03-03T13:04:27.484Z,100242.21
2019-03-03T13:06:59.633Z,100249.75
2019-03-03T13:09:31.794Z,100244.86
2019-03-03T13:12:03.925Z,100234.21
2019-03-03T13:14:36.068Z,100239.48
2019-03-03T13:49:19.193Z,100187.50
2019-03-03T13:51:52.393Z,100175.86
2019-03-03T13:54:24.522Z,100181.73
2019-03-03T13:56:56.652Z,100176.62
2019-03-03T13:59:28.779Z,100169.72
2019-03-03T14:02:00.932Z,100171.64
2019-03-03T14:04:33.073Z,100167.02
2019-03-03T14:07:05.201Z,100164.14
2019-03-03T14:09:37.331Z,100160.41
2019-03-03T14:12:09.465Z,100157.09
2019-03-03T14:14:41.596Z,100155.13
2019-03-03T14:17:13.733Z,100145.68
2019-03-03T14:19:45.865Z,100143.74
2019-03-03T14:22:18.002Z,100138.69
2019-03-03T14:24:50.126Z,100133.66
2019-03-03T14:27:22.261Z,100129.57
2019-03-03T14:29:54.395Z,100127.20
2019-03-03T14:32:26.518Z,100114.29
2019-03-03T14:34:58.662Z,100123.42
2019-03-03T14:37:30.806Z,100122.02
2019-03-03T14:40:02.938Z,100117.55
2019-03-03T14:42:35.449Z,100112.20
2019-03-03T14:45:07.578Z,100101.57
2019-03-03T14:47:39.716Z,100105.02
2019-03-03T14:50:11.844Z,100094.37
2019-03-03T14:52:43.967Z,100088.55
2019-03-03T14:55:16.099Z,100091.11
2019-03-03T14:57:48.241Z,100087.90
2019-03-03T15:00:20.401Z,100081.19
2019-03-03T15:02:52.526Z,100073.13
2019-03-03T15:05:24.679Z,100076.52
2019-03-03T15:07:56.827Z,100064.50
2019-03-03T15:10:28.955Z,100056.50
2019-03-03T15:13:01.089Z,100057.30
2019-03-03T15:15:34.288Z,100056.41
2019-03-03T15:18:06.427Z,100060.30
2019-03-03T15:20:38.557Z,100050.11
2019-03-03T15:23:10.705Z,100053.64
2019-03-03T15:25:42.838Z,100046.63
2019-03-03T15:28:15.937Z,100040.46
2019-03-03T15:30:48.072Z,100037.83
2019-03-03T15:33:20.203Z,100031.72
2019-03-03T15:35:52.336Z,100041.43
2019-03-03T15:38:24.471Z,100031.80
2019-03-03T15:40:56.602Z,100022.98
2019-03-03T15:43:28.736Z,100024.77
2019-03-03T15:46:00.874Z,100030.12
2019-03-03T15:48:33.012Z,100023.97
2019-03-03T15:51:05.132Z,100035.80
2019-03-03T15:53:37.271Z,100017.77
2019-03-03T15:56:09.404Z,100008.52
2019-03-03T15:58:41.531Z,100009.47
2019-03-03T16:01:13.651Z,100004.20
2019-03-03T16:03:45.791Z,100004.70
2019-03-03T16:06:18.269Z,99996.34
2019-03-03T16:08:50.400Z,99999.94
2019-03-03T16:11:22.532Z,99996.41
2019-03-03T16:13:54.661Z,99990.30
2019-03-03T16:16:26.790Z,99989.88
2019-03-03T16:18:58.918Z,99989.88
2019-03-03T16:21:31.049Z,99980.19
2019-03-03T16:24:03.207Z,99983.73
2019-03-03T16:26:35.338Z,99983.35
2019-03-03T16:29:08.441Z,99977.19
2019-03-03T16:31:40.574Z,99981.23
2019-03-03T16:34:12.698Z,99971.55
2019-03-03T16:36:44.818Z,99970.27
2019-03-03T16:39:16.954Z,99967.62
2019-03-03T16:41:49.080Z,99961.04
2019-03-03T16:44:21.216Z,99963.23
2019-03-03T16:46:53.342Z,99953.98
2019-03-03T16:49:25.466Z,99950.89
2019-03-03T16:51:57.601Z,99943.85
2019-03-03T16:54:29.735Z,99935.90
2019-03-03T16:57:01.864Z,99938.98
2019-03-03T16:59:34.960Z,99923.58
2019-03-03T17:02:07.085Z,99923.13
2019-03-03T17:04:39.208Z,99927.54
2019-03-03T17:07:11.350Z,99920.50
2019-03-03T17:09:43.488Z,99920.98
2019-03-03T17:12:15.614Z,99919.66
2019-03-03T17:14:47.752Z,99912.63
2019-03-03T17:17:20.952Z,99899.83
2019-03-03T17:19:53.087Z,99883.11
2019-03-03T17:22:25.216Z,99881.83
2019-03-03T17:24:57.359Z,99879.63
2019-03-03T17:27:29.488Z,99866.49
2019-03-03T17:30:01.619Z,99869.64
2019-03-03T17:32:35.174Z,99874.52
2019-03-03T17:35:07.274Z,99865.34
2019-03-03T17:37:40.373Z,99857.46
2019-03-03T17:40:12.513Z,99864.11
2019-03-03T17:42:44.642Z,99858.88
2019-03-03T17:45:16.772Z,99858.03
2019-03-03T17:47:48.909Z,99853.24
2019-03-03T17:50:21.035Z,99843.62
2019-03-03T17:52:53.162Z,99836.16
2019-03-03T17:55:25.304Z,99834.89
2019-03-03T17:57:57.435Z,99829.67
2019-03-03T18:00:29.571Z,99827.05
2019-03-03T18:03:01.696Z,99826.68
2019-03-03T18:05:33.828Z,99821.05
2019-03-03T18:08:05.956Z,99816.20
2019-03-03T18:10:38.086Z,99806.53
2019-03-03T18:13:10.215Z,99804.82
2019-03-03T18:15:42.343Z,99804.39
2019-03-03T18:18:14.481Z,99800.05
2019-03-03T18:20:46.622Z,99793.02
2019-03-03T18:23:18.750Z,99798.77
2019-03-03T18:25:50.895Z,99792.67
2019-03-03T18:28:24.000Z,99787.41
2019-03-03T18:30:56.119Z,99779.53
2019-03-03T18:33:28.247Z,99773.00
2019-03-03T18:36:00.377Z,99771.70
2019-03-03T18:38:33.591Z,99762.53
2019-03-03T18:41:05.725Z,99756.45
2019-03-03T18:43:37.861Z,99748.55
2019-03-03T18:46:09.989Z,99747.30
2019-03-03T18:48:42.123Z,99728.87
2019-03-03T18:51:14.245Z,99725.42
2019-03-03T18:53:46.369Z,99725.44
2019-03-03T18:56:18.495Z,99715.83
2019-03-03T18:58:50.637Z,99710.17
2019-03-03T19:01:22.778Z,99704.97
2019-03-03T19:03:54.897Z,99697.96
2019-03-03T19:06:27.023Z,99687.45
2019-03-03T19:08:59.148Z,99690.58
2019-03-03T19:11:31.276Z,99694.13
2019-03-03T19:14:03.414Z,99684.50
2019-03-03T19:16:35.540Z,99671.82
2019-03-03T19:19:07.680Z,99664.38
2019-03-03T19:21:39.811Z,99671.02
2019-03-03T19:24:11.942Z,99663.56
2019-03-03T19:26:44.080Z,99654.38
2019-03-03T19:29:16.211Z,99661.00
2019-03-03T19:31:48.325Z,99652.66
2019-03-03T19:34:20.461Z,99644.37
2019-03-03T19:36:52.581Z,99643.94
2019-03-03T19:39:24.705Z,99645.31
2019-03-03T19:41:56.832Z,99653.25
2019-03-03T19:44:29.928Z,99655.94
2019-03-03T19:47:02.057Z,99635.30
2019-03-03T19:49:34.181Z,99633.53
2019-03-03T19:52:06.307Z,99625.66
2019-03-03T19:54:38.435Z,99635.74
2019-03-03T19:57:10.558Z,99623.03
2019-03-03T19:59:42.696Z,99622.16
2019-03-03T20:02:14.815Z,99622.60
2019-03-03T20:04:46.960Z,99608.98
2019-03-03T20:07:19.082Z,99606.34
2019-03-03T20:09:51.217Z,99596.28
2019-03-03T20:12:23.349Z,99597.63
2019-03-03T20:14:55.477Z,99590.60
2019-03-03T20:17:27.601Z,99586.20
2019-03-03T20:19:59.746Z,99578.28
2019-03-03T20:22:31.855Z,99569.50
2019-03-03T20:25:03.978Z,99568.66
2019-03-03T20:27:37.733Z,99586.20
2019-03-03T20:30:09.860Z,99571.30
2019-03-03T20:32:42.053Z,99583.17
2019-03-03T20:35:14.193Z,99576.58
2019-03-03T20:37:46.313Z,99561.19
2019-03-03T20:40:18.444Z,99566.86
2019-03-03T20:42:50.586Z,99566.47
2019-03-03T20:45:22.707Z,99563.77
2019-03-03T20:47:54.839Z,99544.83
2019-03-03T20:50:28.038Z,99555.34
2019-03-03T20:53:00.168Z,99557.50
2019-03-03T20:55:32.293Z,99550.85
2019-03-03T20:58:06.256Z,99552.59
2019-03-03T21:00:38.378Z,99546.50
2019-03-03T21:03:10.500Z,99539.03
2019-03-03T21:05:42.622Z,99538.59
2019-03-03T21:08:14.749Z,99517.95
2019-03-03T21:10:46.880Z,99514.86
2019-03-03T21:13:19.007Z,99520.95
2019-03-03T21:15:51.149Z,99512.20
2019-03-03T21:18:23.265Z,99498.50
2019-03-03T21:20:55.393Z,99504.66
2019-03-03T21:23:28.541Z,99505.53
2019-03-03T21:26:00.620Z,99500.69
2019-03-03T21:28:32.751Z,99496.73
2019-03-03T21:31:04.873Z,99501.56
2019-03-03T21:33:37.002Z,99493.59
2019-03-03T21:36:09.127Z,99493.57
2019-03-03T21:38:41.254Z,99481.19
2019-03-03T21:41:13.387Z,99476.70
2019-03-03T21:43:45.513Z,99460.84
2019-03-03T21:46:17.681Z,99462.08
2019-03-03T21:48:49.818Z,99446.61
2019-03-03T21:51:21.944Z,99427.23
2019-03-03T21:53:54.082Z,99430.75
2019-03-03T21:56:26.212Z,99426.34
2019-03-03T21:58:59.312Z,99418.88
2019-03-03T22:01:31.437Z,99417.55
2019-03-03T22:04:03.556Z,99407.02
2019-03-03T22:06:35.760Z,99400.88
2019-03-03T22:09:07.886Z,99382.39
2019-03-03T22:11:41.631Z,99372.77
2019-03-03T22:14:13.756Z,99363.11
2019-03-03T22:16:45.879Z,99367.06
2019-03-03T22:19:18.006Z,99368.41
2019-03-03T22:21:50.133Z,99360.98
2019-03-03T22:24:22.259Z,99362.30
2019-03-03T22:26:54.384Z,99360.98
2019-03-03T22:29:26.504Z,99361.00
2019-03-03T22:31:58.625Z,99357.50
2019-03-03T22:34:31.138Z,99366.31
2019-03-03T22:37:03.272Z,99371.14
2019-03-03T22:39:35.399Z,99359.32
2019-03-03T22:42:07.521Z,99342.62
2019-03-03T22:44:39.667Z,99341.30
2019-03-03T22:47:11.792Z,99338.21
2019-03-03T22:49:43.927Z,99325.91
2019-03-03T22:52:16.066Z,99317.55
2019-03-03T22:54:48.194Z,99306.99
2019-03-03T22:57:20.321Z,99307.44
2019-03-03T22:59:52.445Z,99304.80
2019-03-03T23:02:24.570Z,99308.77
2019-03-03T23:04:56.695Z,99304.38
2019-03-03T23:07:28.820Z,99289.00
2019-03-03T23:10:00.958Z,99299.10
2019-03-03T23:12:33.083Z,99302.25
2019-03-03T23:15:05.207Z,99303.58
2019-03-03T23:17:37.331Z,99290.38
2019-03-03T23:20:09.465Z,99284.68
2019-03-03T23:22:41.602Z,99289.95
2019-03-03T23:25:13.734Z,99289.53
2019-03-03T23:27:47.033Z,99284.77
2019-03-03T23:30:19.150Z,99289.69
2019-03-03T23:32:51.282Z,99295.86
2019-03-03T23:35:23.407Z,99297.63
2019-03-03T23:37:55.533Z,99284.02
2019-03-03T23:40:27.670Z,99272.20
2019-03-03T23:42:59.787Z,99273.11
2019-03-03T23:45:31.907Z,99266.95
2019-03-03T23:48:04.042Z,99266.14
2019-03-03T23:50:36.172Z,99258.23
2019-03-03T23:53:08.307Z,99253.41
2019-03-03T23:55:40.429Z,99241.11
2019-03-03T23:58:12.556Z,99225.70
